Terminal Aerodrome Forecast
Issued by NWS Wilmington, NC

Home | Current Version | Previous Version | Text Only | Print | Product List | Glossary On
Versions: 1 2 3 4 5 6 7 8 9 10 11 12 13 14 15 16 17 18 19
382
FTUS42 KILM 291725
TAFILM
TAF
KILM 291725Z 2918/3018 10009KT P6SM SCT035
      TEMPO 2918/2920 BKN035
     FM300000 06006KT P6SM FEW030 FEW050
     FM301200 04006KT P6SM FEW025 FEW080
     FM301700 07010KT P6SM FEW040 FEW060=

USA.gov is the U.S. government's official web portal to all federal, state and local government web resources and services.